Terminal Aerodrome Forecast
Issued by NWS

Home | Current Version | Previous Version | Text Only | Print | Product List | Glossary On
Versions: 1 2 3 4 5 6 7 8 9 10 11 12 13 14 15 16 17 18 19 20 21
000
FTUS43 KDVN 131131
TAFBRL
TAF
KBRL 131131Z 1312/1412 20017KT P6SM BKN200
     FM131500 24017G25KT P6SM BKN200
     FM131800 29020G27KT P6SM BKN080 BKN200
     FM132000 31022G34KT P6SM BKN080 BKN200
     FM140100 32018G25KT P6SM OVC035
     FM140600 34010KT P6SM BKN035=

USA.gov is the U.S. government's official web portal to all federal, state and local government web resources and services.